sensor_id;sensor_type;location;lat;lon;timestamp;pressure;altitude;pressure_sealevel;temperature;humidity
33191;BME280;19554;42.652;23.364;2023-03-25T00:00:09;94357.75;;;12.19;51.85
33191;BME280;19554;42.652;23.364;2023-03-25T00:02:39;94336.66;;;12.18;51.50
33191;BME280;19554;42.652;23.364;2023-03-25T00:05:05;94327.16;;;12.12;51.52
33191;BME280;19554;42.652;23.364;2023-03-25T00:07:31;94350.22;;;12.21;51.60
33191;BME280;19554;42.652;23.364;2023-03-25T00:09:56;94256.88;;;11.61;51.70
33191;BME280;19554;42.652;23.364;2023-03-25T00:12:22;94314.63;;;11.98;51.70
33191;BME280;19554;42.652;23.364;2023-03-25T00:14:47;94348.06;;;12.09;51.73
33191;BME280;19554;42.652;23.364;2023-03-25T00:17:21;94331.69;;;11.89;51.61
33191;BME280;19554;42.652;23.364;2023-03-25T00:19:47;94348.91;;;11.96;52.00
33191;BME280;19554;42.652;23.364;2023-03-25T00:22:16;94339.44;;;11.90;52.59
33191;BME280;19554;42.652;23.364;2023-03-25T00:24:41;94326.25;;;11.80;52.65
33191;BME280;19554;42.652;23.364;2023-03-25T00:27:06;94333.47;;;11.79;52.84
33191;BME280;19554;42.652;23.364;2023-03-25T00:29:32;94336.66;;;11.68;53.05
33191;BME280;19554;42.652;23.364;2023-03-25T00:31:57;94276.41;;;11.11;53.80
33191;BME280;19554;42.652;23.364;2023-03-25T00:34:23;94332.13;;;11.54;53.12
33191;BME280;19554;42.652;23.364;2023-03-25T00:36:48;94321.06;;;11.47;53.28
33191;BME280;19554;42.652;23.364;2023-03-25T00:39:13;94326.91;;;11.49;53.74
33191;BME280;19554;42.652;23.364;2023-03-25T00:41:39;94332.13;;;11.54;53.71
33191;BME280;19554;42.652;23.364;2023-03-25T00:44:06;94326.97;;;11.58;53.36
33191;BME280;19554;42.652;23.364;2023-03-25T00:46:32;94327.31;;;11.56;52.81
33191;BME280;19554;42.652;23.364;2023-03-25T00:48:58;94328.38;;;11.55;52.97
33191;BME280;19554;42.652;23.364;2023-03-25T00:51:25;94321.44;;;11.54;53.06
33191;BME280;19554;42.652;23.364;2023-03-25T00:53:53;94321.44;;;11.54;53.08
33191;BME280;19554;42.652;23.364;2023-03-25T00:56:20;94293.00;;;11.36;53.19
33191;BME280;19554;42.652;23.364;2023-03-25T00:58:45;94314.56;;;11.39;53.15
33191;BME280;19554;42.652;23.364;2023-03-25T01:01:16;94323.88;;;11.42;53.31
33191;BME280;19554;42.652;23.364;2023-03-25T01:03:43;94316.16;;;11.27;54.41
33191;BME280;19554;42.652;23.364;2023-03-25T01:06:10;94269.06;;;11.03;54.30
33191;BME280;19554;42.652;23.364;2023-03-25T01:08:37;94305.25;;;11.37;53.92
33191;BME280;19554;42.652;23.364;2023-03-25T01:11:03;94301.47;;;11.38;53.68
33191;BME280;19554;42.652;23.364;2023-03-25T01:13:28;94271.44;;;11.19;53.80
33191;BME280;19554;42.652;23.364;2023-03-25T01:15:54;94305.63;;;11.44;53.87
33191;BME280;19554;42.652;23.364;2023-03-25T01:18:19;94298.59;;;11.48;54.18
33191;BME280;19554;42.652;23.364;2023-03-25T01:20:45;94243.13;;;11.18;53.92
33191;BME280;19554;42.652;23.364;2023-03-25T01:23:10;94289.97;;;11.51;54.37
33191;BME280;19554;42.652;23.364;2023-03-25T01:25:36;94297.00;;;11.47;52.97
33191;BME280;19554;42.652;23.364;2023-03-25T01:28:02;94293.97;;;11.40;53.07
33191;BME280;19554;42.652;23.364;2023-03-25T01:30:27;94296.72;;;11.35;53.64
33191;BME280;19554;42.652;23.364;2023-03-25T01:32:53;94287.13;;;11.34;53.50
33191;BME280;19554;42.652;23.364;2023-03-25T01:35:18;94274.97;;;11.28;54.08
33191;BME280;19554;42.652;23.364;2023-03-25T01:37:43;94276.06;;;11.27;55.01
33191;BME280;19554;42.652;23.364;2023-03-25T01:40:17;94207.59;;;10.81;54.06
33191;BME280;19554;42.652;23.364;2023-03-25T01:42:42;94231.81;;;10.98;54.01
33191;BME280;19554;42.652;23.364;2023-03-25T01:45:29;94259.97;;;11.18;54.12
33191;BME280;19554;42.652;23.364;2023-03-25T01:48:05;94241.50;;;10.94;54.42
33191;BME280;19554;42.652;23.364;2023-03-25T01:50:35;94269.25;;;11.07;54.33
33191;BME280;19554;42.652;23.364;2023-03-25T01:53:05;94267.19;;;11.04;54.58
33191;BME280;19554;42.652;23.364;2023-03-25T01:55:33;94265.72;;;10.98;54.19
33191;BME280;19554;42.652;23.364;2023-03-25T01:58:01;94270.25;;;10.97;54.33
33191;BME280;19554;42.652;23.364;2023-03-25T02:00:30;94222.91;;;10.61;54.75
33191;BME280;19554;42.652;23.364;2023-03-25T02:02:57;94269.97;;;10.85;54.90
33191;BME280;19554;42.652;23.364;2023-03-25T02:05:32;94261.00;;;10.81;54.67
33191;BME280;19554;42.652;23.364;2023-03-25T02:08:01;94236.16;;;10.66;54.68
33191;BME280;19554;42.652;23.364;2023-03-25T02:10:28;94242.59;;;10.65;54.92
33191;BME280;19554;42.652;23.364;2023-03-25T02:12:53;94263.34;;;10.82;55.23
33191;BME280;19554;42.652;23.364;2023-03-25T02:15:19;94264.44;;;10.81;55.50
33191;BME280;19554;42.652;23.364;2023-03-25T02:18:25;94262.06;;;10.80;54.89
33191;BME280;19554;42.652;23.364;2023-03-25T02:29:54;94253.19;;;10.71;55.03
33191;BME280;19554;42.652;23.364;2023-03-25T02:40:21;94257.03;;;10.64;55.17
33191;BME280;19554;42.652;23.364;2023-03-25T02:45:25;94258.31;;;10.53;56.21
33191;BME280;19554;42.652;23.364;2023-03-25T02:48:05;94254.81;;;10.53;56.37
33191;BME280;19554;42.652;23.364;2023-03-25T02:50:40;94181.16;;;10.10;56.23
33191;BME280;19554;42.652;23.364;2023-03-25T02:53:16;94242.69;;;10.60;55.95
33191;BME280;19554;42.652;23.364;2023-03-25T02:55:45;94238.44;;;10.59;55.78
33191;BME280;19554;42.652;23.364;2023-03-25T02:58:14;94243.19;;;10.62;55.63
33191;BME280;19554;42.652;23.364;2023-03-25T03:00:42;94234.50;;;10.57;55.62
33191;BME280;19554;42.652;23.364;2023-03-25T03:03:08;94246.03;;;10.52;55.88
33191;BME280;19554;42.652;23.364;2023-03-25T03:05:41;94224.88;;;10.42;55.98
33191;BME280;19554;42.652;23.364;2023-03-25T03:21:39;94204.56;;;10.13;56.43
33191;BME280;19554;42.652;23.364;2023-03-25T03:24:20;94210.28;;;10.07;56.71
33191;BME280;19554;42.652;23.364;2023-03-25T03:26:56;94238.06;;;10.19;56.93
33191;BME280;19554;42.652;23.364;2023-03-25T03:29:29;94201.75;;;9.91;56.73
33191;BME280;19554;42.652;23.364;2023-03-25T03:32:01;94234.13;;;10.17;57.12
33191;BME280;19554;42.652;23.364;2023-03-25T03:34:34;94242.13;;;10.17;57.16
33191;BME280;19554;42.652;23.364;2023-03-25T03:37:05;94232.41;;;10.07;56.92
33191;BME280;19554;42.652;23.364;2023-03-25T03:39:35;94229.75;;;10.07;56.85
33191;BME280;19554;42.652;23.364;2023-03-25T03:42:11;94246.50;;;10.27;56.57
33191;BME280;19554;42.652;23.364;2023-03-25T03:44:42;94167.38;;;9.76;55.79
33191;BME280;19554;42.652;23.364;2023-03-25T03:47:14;94247.66;;;10.20;55.73
33191;BME280;19554;42.652;23.364;2023-03-25T03:49:46;94239.81;;;10.10;56.12
33191;BME280;19554;42.652;23.364;2023-03-25T03:52:21;94243.06;;;10.07;57.13
33191;BME280;19554;42.652;23.364;2023-03-25T03:55:03;94235.75;;;9.99;57.31
33191;BME280;19554;42.652;23.364;2023-03-25T03:57:35;94245.84;;;10.02;56.88
33191;BME280;19554;42.652;23.364;2023-03-25T04:02:47;94243.41;;;9.87;57.91
33191;BME280;19554;42.652;23.364;2023-03-25T04:05:15;94251.88;;;9.75;58.98
33191;BME280;19554;42.652;23.364;2023-03-25T04:07:49;94258.56;;;9.72;58.91
33191;BME280;19554;42.652;23.364;2023-03-25T04:10:27;94234.84;;;9.57;59.61
33191;BME280;19554;42.652;23.364;2023-03-25T04:12:59;94250.47;;;9.78;58.96
33191;BME280;19554;42.652;23.364;2023-03-25T04:15:26;94250.63;;;9.86;58.93
33191;BME280;19554;42.652;23.364;2023-03-25T04:17:51;94250.75;;;9.95;58.89
33191;BME280;19554;42.652;23.364;2023-03-25T04:20:22;94240.31;;;9.99;58.37
33191;BME280;19554;42.652;23.364;2023-03-25T04:22:50;94230.44;;;9.99;58.48
33191;BME280;19554;42.652;23.364;2023-03-25T04:25:16;94220.75;;;10.03;58.41
33191;BME280;19554;42.652;23.364;2023-03-25T04:27:42;94212.25;;;10.01;58.60
33191;BME280;19554;42.652;23.364;2023-03-25T04:30:13;94247.50;;;10.31;58.18
33191;BME280;19554;42.652;23.364;2023-03-25T04:32:42;94247.50;;;10.31;57.84
33191;BME280;19554;42.652;23.364;2023-03-25T04:35:10;94232.09;;;10.28;57.72
33191;BME280;19554;42.652;23.364;2023-03-25T04:37:36;94206.56;;;10.21;57.86
33191;BME280;19554;42.652;23.364;2023-03-25T04:40:02;94244.78;;;10.63;57.05
33191;BME280;19554;42.652;23.364;2023-03-25T04:42:30;94159.06;;;10.24;56.53
33191;BME280;19554;42.652;23.364;2023-03-25T04:45:04;94226.09;;;10.91;55.58
33191;BME280;19554;42.652;23.364;2023-03-25T04:47:30;94159.97;;;10.60;55.09
33191;BME280;19554;42.652;23.364;2023-03-25T04:49:55;94253.88;;;11.40;54.43
33191;BME280;19554;42.652;23.364;2023-03-25T04:52:21;94252.81;;;11.63;54.22
33191;BME280;19554;42.652;23.364;2023-03-25T04:54:46;94248.22;;;11.78;53.23
33191;BME280;19554;42.652;23.364;2023-03-25T04:57:12;94251.91;;;12.04;52.81
33191;BME280;19554;42.652;23.364;2023-03-25T04:59:37;94253.63;;;12.31;52.32
33191;BME280;19554;42.652;23.364;2023-03-25T05:02:03;94256.56;;;12.52;51.82
33191;BME280;19554;42.652;23.364;2023-03-25T05:04:30;94245.28;;;12.64;51.28
33191;BME280;19554;42.652;23.364;2023-03-25T05:06:56;94250.72;;;12.90;50.20
33191;BME280;19554;42.652;23.364;2023-03-25T05:09:21;94251.44;;;13.13;49.58
33191;BME280;19554;42.652;23.364;2023-03-25T05:11:48;94240.00;;;13.30;49.13
33191;BME280;19554;42.652;23.364;2023-03-25T05:14:16;94247.56;;;13.45;48.36
33191;BME280;19554;42.652;23.364;2023-03-25T05:16:43;94251.19;;;13.67;48.10
33191;BME280;19554;42.652;23.364;2023-03-25T05:19:09;94219.50;;;13.60;47.60
33191;BME280;19554;42.652;23.364;2023-03-25T05:21:35;94248.84;;;13.91;47.65
33191;BME280;19554;42.652;23.364;2023-03-25T05:24:05;94157.03;;;13.42;47.46
33191;BME280;19554;42.652;23.364;2023-03-25T05:26:32;94258.28;;;14.15;47.18
33191;BME280;19554;42.652;23.364;2023-03-25T05:29:00;94227.69;;;13.98;46.93
33191;BME280;19554;42.652;23.364;2023-03-25T05:31:26;94248.81;;;14.26;47.02
33191;BME280;19554;42.652;23.364;2023-03-25T05:33:52;94240.13;;;14.20;46.96
33191;BME280;19554;42.652;23.364;2023-03-25T05:36:19;94253.19;;;14.57;46.25
33191;BME280;19554;42.652;23.364;2023-03-25T05:38:44;94246.13;;;14.73;46.09
33191;BME280;19554;42.652;23.364;2023-03-25T05:41:13;94245.50;;;14.76;45.85
33191;BME280;19554;42.652;23.364;2023-03-25T05:43:43;94250.22;;;14.79;45.97
33191;BME280;19554;42.652;23.364;2023-03-25T05:46:20;94247.25;;;14.72;46.37
33191;BME280;19554;42.652;23.364;2023-03-25T05:48:47;94258.09;;;14.37;47.58
33191;BME280;19554;42.652;23.364;2023-03-25T05:51:17;94257.25;;;14.45;47.37
33191;BME280;19554;42.652;23.364;2023-03-25T05:53:46;94254.03;;;14.22;47.73
33191;BME280;19554;42.652;23.364;2023-03-25T05:56:16;94252.56;;;14.25;48.32
33191;BME280;19554;42.652;23.364;2023-03-25T05:58:45;94245.75;;;14.54;47.60
33191;BME280;19554;42.652;23.364;2023-03-25T06:01:11;94258.38;;;14.44;47.56
33191;BME280;19554;42.652;23.364;2023-03-25T06:03:40;94150.97;;;13.97;47.45
33191;BME280;19554;42.652;23.364;2023-03-25T06:06:10;94254.81;;;14.79;47.67
33191;BME280;19554;42.652;23.364;2023-03-25T06:08:47;94233.47;;;14.82;47.20
33191;BME280;19554;42.652;23.364;2023-03-25T06:11:15;94160.81;;;14.32;46.62
33191;BME280;19554;42.652;23.364;2023-03-25T06:13:42;94234.22;;;14.91;45.97
33191;BME280;19554;42.652;23.364;2023-03-25T06:16:18;94240.03;;;15.02;46.11
33191;BME280;19554;42.652;23.364;2023-03-25T06:18:45;94235.16;;;15.25;44.90
33191;BME280;19554;42.652;23.364;2023-03-25T06:21:18;94237.72;;;15.43;43.78
33191;BME280;19554;42.652;23.364;2023-03-25T06:23:44;94241.66;;;15.45;43.61
33191;BME280;19554;42.652;23.364;2023-03-25T06:26:12;94237.88;;;15.46;43.42
33191;BME280;19554;42.652;23.364;2023-03-25T06:28:37;94245.19;;;15.67;43.22
33191;BME280;19554;42.652;23.364;2023-03-25T06:31:03;94213.72;;;15.58;42.84
33191;BME280;19554;42.652;23.364;2023-03-25T06:33:31;94237.34;;;15.95;41.86
33191;BME280;19554;42.652;23.364;2023-03-25T06:35:57;94236.72;;;16.10;41.12
33191;BME280;19554;42.652;23.364;2023-03-25T06:38:22;94231.75;;;16.21;41.45
33191;BME280;19554;42.652;23.364;2023-03-25T06:40:47;94246.00;;;16.33;40.57
33191;BME280;19554;42.652;23.364;2023-03-25T06:43:13;94246.13;;;16.37;40.54
33191;BME280;19554;42.652;23.364;2023-03-25T06:45:38;94248.69;;;16.21;40.97
33191;BME280;19554;42.652;23.364;2023-03-25T06:48:04;94145.91;;;15.53;42.99
33191;BME280;19554;42.652;23.364;2023-03-25T06:50:30;94235.31;;;15.92;44.17
33191;BME280;19554;42.652;23.364;2023-03-25T06:52:55;94249.13;;;15.90;44.29
33191;BME280;19554;42.652;23.364;2023-03-25T06:55:21;94253.44;;;15.82;44.58
33191;BME280;19554;42.652;23.364;2023-03-25T06:57:46;94249.19;;;15.81;45.04
33191;BME280;19554;42.652;23.364;2023-03-25T07:00:12;94256.72;;;15.67;45.58
33191;BME280;19554;42.652;23.364;2023-03-25T07:02:38;94254.78;;;15.76;45.55
33191;BME280;19554;42.652;23.364;2023-03-25T07:05:04;94245.84;;;15.84;45.34
33191;BME280;19554;42.652;23.364;2023-03-25T07:07:30;94254.75;;;15.97;45.61
33191;BME280;19554;42.652;23.364;2023-03-25T07:09:55;94184.00;;;15.55;45.63
33191;BME280;19554;42.652;23.364;2023-03-25T07:12:21;94257.41;;;16.18;45.15
33191;BME280;19554;42.652;23.364;2023-03-25T07:14:54;94254.25;;;16.16;45.23
33191;BME280;19554;42.652;23.364;2023-03-25T07:17:21;94247.09;;;16.20;45.30
33191;BME280;19554;42.652;23.364;2023-03-25T07:19:47;94244.09;;;16.34;45.10
33191;BME280;19554;42.652;23.364;2023-03-25T07:22:12;94243.97;;;16.18;45.35
33191;BME280;19554;42.652;23.364;2023-03-25T07:24:38;94240.63;;;16.33;45.02
33191;BME280;19554;42.652;23.364;2023-03-25T07:27:03;94235.47;;;16.41;44.58
33191;BME280;19554;42.652;23.364;2023-03-25T07:29:29;94228.53;;;16.40;44.24
33191;BME280;19554;42.652;23.364;2023-03-25T07:31:54;94215.84;;;16.28;43.52
33191;BME280;19554;42.652;23.364;2023-03-25T07:34:20;94246.22;;;16.62;43.68
33191;BME280;19554;42.652;23.364;2023-03-25T07:36:45;94242.34;;;16.84;43.22
33191;BME280;19554;42.652;23.364;2023-03-25T07:39:10;94241.00;;;17.14;42.37
33191;BME280;19554;42.652;23.364;2023-03-25T07:41:36;94243.00;;;17.29;42.32
33191;BME280;19554;42.652;23.364;2023-03-25T07:44:01;94234.34;;;17.36;41.33
33191;BME280;19554;42.652;23.364;2023-03-25T07:46:27;94210.16;;;17.40;41.04
33191;BME280;19554;42.652;23.364;2023-03-25T07:48:52;94178.50;;;17.24;41.16
33191;BME280;19554;42.652;23.364;2023-03-25T07:51:18;94209.09;;;17.16;41.71
33191;BME280;19554;42.652;23.364;2023-03-25T07:53:43;94234.66;;;17.59;41.25
33191;BME280;19554;42.652;23.364;2023-03-25T07:56:10;94217.72;;;17.87;40.38
33191;BME280;19554;42.652;23.364;2023-03-25T07:58:36;94223.44;;;17.97;40.18
33191;BME280;19554;42.652;23.364;2023-03-25T08:01:01;94222.06;;;18.04;40.26
33191;BME280;19554;42.652;23.364;2023-03-25T08:03:27;94214.69;;;18.16;39.65
33191;BME280;19554;42.652;23.364;2023-03-25T08:05:52;94214.78;;;18.20;40.10
33191;BME280;19554;42.652;23.364;2023-03-25T08:08:18;94206.69;;;18.36;39.46
33191;BME280;19554;42.652;23.364;2023-03-25T08:10:45;94131.38;;;18.03;39.24
33191;BME280;19554;42.652;23.364;2023-03-25T08:13:13;94212.88;;;18.80;38.27
33191;BME280;19554;42.652;23.364;2023-03-25T08:15:39;94155.19;;;18.29;39.05
33191;BME280;19554;42.652;23.364;2023-03-25T08:18:05;94195.94;;;18.67;38.69
33191;BME280;19554;42.652;23.364;2023-03-25T08:20:32;94207.34;;;18.45;39.21
33191;BME280;19554;42.652;23.364;2023-03-25T08:22:58;94207.44;;;18.64;39.49
33191;BME280;19554;42.652;23.364;2023-03-25T08:25:23;94193.84;;;18.77;39.31
33191;BME280;19554;42.652;23.364;2023-03-25T08:27:49;94195.44;;;18.78;39.62
33191;BME280;19554;42.652;23.364;2023-03-25T08:30:15;94189.34;;;18.81;39.07
33191;BME280;19554;42.652;23.364;2023-03-25T08:32:41;94189.22;;;18.61;38.90
33191;BME280;19554;42.652;23.364;2023-03-25T08:35:10;94196.09;;;18.59;39.78
33191;BME280;19554;42.652;23.364;2023-03-25T08:37:36;94199.16;;;18.57;39.30
33191;BME280;19554;42.652;23.364;2023-03-25T08:40:05;94119.28;;;18.28;39.54
33191;BME280;19554;42.652;23.364;2023-03-25T08:42:34;94184.34;;;18.83;39.06
33191;BME280;19554;42.652;23.364;2023-03-25T08:45:00;94170.72;;;19.11;39.39
33191;BME280;19554;42.652;23.364;2023-03-25T08:47:26;94176.38;;;19.22;38.32
33191;BME280;19554;42.652;23.364;2023-03-25T08:49:51;94101.94;;;18.77;38.27
33191;BME280;19554;42.652;23.364;2023-03-25T08:52:16;94167.13;;;19.23;38.21
33191;BME280;19554;42.652;23.364;2023-03-25T08:54:42;94170.44;;;19.32;37.84
33191;BME280;19554;42.652;23.364;2023-03-25T08:57:07;94166.44;;;19.45;37.72
33191;BME280;19554;42.652;23.364;2023-03-25T08:59:32;94148.69;;;19.63;37.31
33191;BME280;19554;42.652;23.364;2023-03-25T09:01:58;94172.97;;;19.79;37.02
33191;BME280;19554;42.652;23.364;2023-03-25T09:04:23;94093.00;;;19.08;37.17
33191;BME280;19554;42.652;23.364;2023-03-25T09:06:49;94160.53;;;19.04;37.99
33191;BME280;19554;42.652;23.364;2023-03-25T09:09:16;94160.72;;;18.80;38.72
33191;BME280;19554;42.652;23.364;2023-03-25T09:11:42;94146.41;;;18.95;38.47
33191;BME280;19554;42.652;23.364;2023-03-25T09:14:08;94156.56;;;19.17;37.84
33191;BME280;19554;42.652;23.364;2023-03-25T09:16:34;94126.78;;;19.17;37.45
33191;BME280;19554;42.652;23.364;2023-03-25T09:19:00;94080.59;;;18.72;37.52
33191;BME280;19554;42.652;23.364;2023-03-25T09:21:26;94143.03;;;19.17;38.12
33191;BME280;19554;42.652;23.364;2023-03-25T09:23:51;94141.94;;;19.38;37.75
33191;BME280;19554;42.652;23.364;2023-03-25T09:26:17;94144.78;;;19.45;37.68
33191;BME280;19554;42.652;23.364;2023-03-25T09:28:42;94137.94;;;19.32;37.82
33191;BME280;19554;42.652;23.364;2023-03-25T09:31:08;94047.59;;;18.82;37.45
33191;BME280;19554;42.652;23.364;2023-03-25T09:33:34;94110.56;;;19.17;37.65
33191;BME280;19554;42.652;23.364;2023-03-25T09:36:00;94124.22;;;19.05;37.74
33191;BME280;19554;42.652;23.364;2023-03-25T09:38:26;94122.22;;;19.02;37.55
33191;BME280;19554;42.652;23.364;2023-03-25T09:40:51;94124.38;;;19.12;37.68
33191;BME280;19554;42.652;23.364;2023-03-25T09:43:27;94132.28;;;19.21;38.02
33191;BME280;19554;42.652;23.364;2023-03-25T09:45:57;94121.72;;;19.32;37.99
33191;BME280;19554;42.652;23.364;2023-03-25T09:51:24;94120.41;;;19.45;37.57
33191;BME280;19554;42.652;23.364;2023-03-25T09:53:50;94114.06;;;19.73;37.19
33191;BME280;19554;42.652;23.364;2023-03-25T09:56:23;94113.63;;;19.71;36.90
33191;BME280;19554;42.652;23.364;2023-03-25T09:58:56;94106.47;;;19.82;37.12
33191;BME280;19554;42.652;23.364;2023-03-25T10:04:12;94094.09;;;19.81;36.18
33191;BME280;19554;42.652;23.364;2023-03-25T10:06:47;94104.22;;;19.64;36.81
33191;BME280;19554;42.652;23.364;2023-03-25T10:09:26;94097.81;;;19.73;37.30
33191;BME280;19554;42.652;23.364;2023-03-25T10:12:02;94105.63;;;19.78;36.31
33191;BME280;19554;42.652;23.364;2023-03-25T10:14:56;94078.69;;;19.65;36.58
33191;BME280;19554;42.652;23.364;2023-03-25T10:17:38;94086.53;;;19.51;36.49
33191;BME280;19554;42.652;23.364;2023-03-25T10:23:13;94077.22;;;19.49;36.49
33191;BME280;19554;42.652;23.364;2023-03-25T10:25:44;93991.38;;;19.10;36.50
33191;BME280;19554;42.652;23.364;2023-03-25T10:28:18;94059.03;;;19.69;35.83
33191;BME280;19554;42.652;23.364;2023-03-25T10:30:49;94056.63;;;19.83;35.15
33191;BME280;19554;42.652;23.364;2023-03-25T10:33:36;94061.50;;;19.97;34.63
33191;BME280;19554;42.652;23.364;2023-03-25T10:36:06;94058.31;;;20.14;33.56
33191;BME280;19554;42.652;23.364;2023-03-25T10:38:36;94055.34;;;20.23;33.13
33191;BME280;19554;42.652;23.364;2023-03-25T10:41:45;94049.31;;;20.33;32.26
33191;BME280;19554;42.652;23.364;2023-03-25T10:43:52;94041.50;;;20.51;32.68
33191;BME280;19554;42.652;23.364;2023-03-25T10:46:33;94040.88;;;20.61;32.08
33191;BME280;19554;42.652;23.364;2023-03-25T10:49:01;94045.94;;;20.63;31.76
33191;BME280;19554;42.652;23.364;2023-03-25T10:51:29;94038.22;;;20.65;31.63
33191;BME280;19554;42.652;23.364;2023-03-25T10:53:56;94034.47;;;20.73;31.53
33191;BME280;19554;42.652;23.364;2023-03-25T10:56:35;94036.03;;;20.74;31.79
33191;BME280;19554;42.652;23.364;2023-03-25T10:59:23;93979.06;;;20.21;32.07
33191;BME280;19554;42.652;23.364;2023-03-25T11:01:55;94026.28;;;20.46;31.39
33191;BME280;19554;42.652;23.364;2023-03-25T11:04:23;94022.22;;;20.33;32.01
33191;BME280;19554;42.652;23.364;2023-03-25T11:06:56;94020.84;;;20.20;31.73
33191;BME280;19554;42.652;23.364;2023-03-25T11:09:30;94019.88;;;19.85;32.52
33191;BME280;19554;42.652;23.364;2023-03-25T11:12:00;94013.88;;;19.73;33.19
33191;BME280;19554;42.652;23.364;2023-03-25T11:14:28;94008.22;;;19.81;33.01
33191;BME280;19554;42.652;23.364;2023-03-25T11:16:59;94002.72;;;19.78;33.14
33191;BME280;19554;42.652;23.364;2023-03-25T11:19:30;93995.69;;;19.73;33.54
33191;BME280;19554;42.652;23.364;2023-03-25T11:22:10;93988.63;;;19.69;33.59
33191;BME280;19554;42.652;23.364;2023-03-25T11:24:42;93984.50;;;19.75;34.03
33191;BME280;19554;42.652;23.364;2023-03-25T11:27:09;93985.06;;;19.84;33.87
33191;BME280;19554;42.652;23.364;2023-03-25T11:29:36;93978.91;;;19.87;33.97
33191;BME280;19554;42.652;23.364;2023-03-25T11:32:32;93986.00;;;19.95;34.05
33191;BME280;19554;42.652;23.364;2023-03-25T11:35:00;93980.81;;;20.09;34.25
33191;BME280;19554;42.652;23.364;2023-03-25T11:37:28;93971.78;;;20.25;33.46
33191;BME280;19554;42.652;23.364;2023-03-25T11:40:03;93965.72;;;20.35;33.69
33191;BME280;19554;42.652;23.364;2023-03-25T11:42:32;93971.34;;;20.49;33.50
33191;BME280;19554;42.652;23.364;2023-03-25T11:45:00;93874.53;;;19.93;33.38
33191;BME280;19554;42.652;23.364;2023-03-25T11:47:37;93957.16;;;20.33;33.16
33191;BME280;19554;42.652;23.364;2023-03-25T11:50:04;93961.75;;;20.29;33.40
33191;BME280;19554;42.652;23.364;2023-03-25T11:52:42;93957.38;;;20.47;33.14
33191;BME280;19554;42.652;23.364;2023-03-25T11:55:23;93959.25;;;20.70;32.56
33191;BME280;19554;42.652;23.364;2023-03-25T11:57:50;93930.50;;;20.62;32.41
33191;BME280;19554;42.652;23.364;2023-03-25T12:00:59;93941.97;;;20.51;32.35
33191;BME280;19554;42.652;23.364;2023-03-25T12:05:36;93940.72;;;20.72;32.30
33191;BME280;19554;42.652;23.364;2023-03-25T12:08:15;93925.69;;;20.81;32.58
33191;BME280;19554;42.652;23.364;2023-03-25T12:10:47;93931.66;;;20.94;31.28
33191;BME280;19554;42.652;23.364;2023-03-25T12:37:19;93926.66;;;20.13;32.25
33191;BME280;19554;42.652;23.364;2023-03-25T12:53:39;93930.56;;;19.89;32.63
33191;BME280;19554;42.652;23.364;2023-03-25T12:56:24;93916.63;;;19.87;32.32
33191;BME280;19554;42.652;23.364;2023-03-25T12:59:08;93932.53;;;19.92;32.13
33191;BME280;19554;42.652;23.364;2023-03-25T13:07:20;93924.84;;;19.94;32.09
33191;BME280;19554;42.652;23.364;2023-03-25T13:15:13;93923.81;;;19.79;32.15
33191;BME280;19554;42.652;23.364;2023-03-25T13:17:46;93920.28;;;19.75;32.21
33191;BME280;19554;42.652;23.364;2023-03-25T13:20:15;93926.06;;;19.74;32.17
33191;BME280;19554;42.652;23.364;2023-03-25T13:22:43;93918.97;;;19.65;32.25
33191;BME280;19554;42.652;23.364;2023-03-25T13:25:24;93838.34;;;19.09;32.83
33191;BME280;19554;42.652;23.364;2023-03-25T13:27:51;93913.41;;;19.58;32.47
33191;BME280;19554;42.652;23.364;2023-03-25T13:32:54;93929.13;;;19.49;33.51
33191;BME280;19554;42.652;23.364;2023-03-25T13:37:49;93928.38;;;19.29;34.36
33191;BME280;19554;42.652;23.364;2023-03-25T13:43:29;93946.56;;;19.09;34.91
33191;BME280;19554;42.652;23.364;2023-03-25T13:46:03;93942.63;;;19.07;35.09
33191;BME280;19554;42.652;23.364;2023-03-25T13:48:53;93942.44;;;18.96;35.50
33191;BME280;19554;42.652;23.364;2023-03-25T13:51:19;93948.47;;;18.89;35.51
33191;BME280;19554;42.652;23.364;2023-03-25T13:53:59;93964.63;;;18.86;35.80
33191;BME280;19554;42.652;23.364;2023-03-25T14:05:39;94025.25;;;18.34;42.12
33191;BME280;19554;42.652;23.364;2023-03-25T14:14:01;93987.91;;;17.88;46.27
33191;BME280;19554;42.652;23.364;2023-03-25T14:16:39;93966.72;;;17.74;46.13
33191;BME280;19554;42.652;23.364;2023-03-25T14:19:11;94000.91;;;17.70;47.92
33191;BME280;19554;42.652;23.364;2023-03-25T14:24:11;93993.75;;;17.46;50.38
33191;BME280;19554;42.652;23.364;2023-03-25T14:27:05;93999.38;;;17.25;51.49
33191;BME280;19554;42.652;23.364;2023-03-25T14:29:54;93997.91;;;17.28;52.48
33191;BME280;19554;42.652;23.364;2023-03-25T14:34:48;94006.84;;;17.16;53.34
33191;BME280;19554;42.652;23.364;2023-03-25T14:39:45;93979.75;;;16.85;55.51
33191;BME280;19554;42.652;23.364;2023-03-25T14:42:24;93961.22;;;16.71;56.79
33191;BME280;19554;42.652;23.364;2023-03-25T14:44:52;93950.81;;;16.69;57.11
33191;BME280;19554;42.652;23.364;2023-03-25T14:52:44;93901.34;;;16.90;56.71
33191;BME280;19554;42.652;23.364;2023-03-25T14:55:33;93903.28;;;17.05;57.54
33191;BME280;19554;42.652;23.364;2023-03-25T14:58:26;93897.19;;;17.08;55.77
33191;BME280;19554;42.652;23.364;2023-03-25T15:00:57;93898.06;;;17.12;56.62
33191;BME280;19554;42.652;23.364;2023-03-25T15:03:33;93885.53;;;17.04;56.44
33191;BME280;19554;42.652;23.364;2023-03-25T15:06:00;93896.53;;;17.27;57.82
33191;BME280;19554;42.652;23.364;2023-03-25T15:08:38;93905.59;;;17.35;57.65
33191;BME280;19554;42.652;23.364;2023-03-25T15:11:15;93908.19;;;17.47;56.80
33191;BME280;19554;42.652;23.364;2023-03-25T15:13:44;93897.59;;;17.54;56.54